Airfield :
LOGIN :

Register | Disclaimer

   EN    FR    IT 

 










Legend :    VFR   Marginal VFR   IFR   Intensive IFR   Very Intensive IFR
Visi :
Ceiling :
>= 8 km
>= 3000ft
5 to 8 km
1000 to 3000 ft
1500m to 5 km
500 to 1000 ft
800 to 1500m
200 to 500 ft
< 800m
< 200 ft
Symbols :   Thunderstorms  Fog  Heavy snow  Heavy precipitations  Wind > 20 kt
SIGMETs :     Misc.  Thunderstorms  Icing  Turbulence  Mountain Waves  Volcanic Ashes







- Airport Elevation : 468 ft
- IATA code : GRO


LEGE - Girona Costa Brava

CURRENT METAR :
  • 181200Z 21003KT 150V260 9999 FEW035 17/09 Q1019

EXPIRED METARs :
  • 181130Z 00000KT 9999 FEW030 17/08 Q1020
  • 181100Z VRB02KT 9999 FEW022 15/07 Q1020
  • 181030Z 00000KT 9999 FEW022 15/07 Q1020
  • 181000Z 00000KT 9999 SCT024 14/07 Q1020
  • 180930Z 00000KT 9999 SCT024 10/06 Q1020

TAF TAF LEGE
Valid from the 18 at 12:00 until the 19 at 12:00 UTC


181100Z 1812/1912 VRB04KT 9999 FEW030 TX19/1813Z TN01/1906Z
PROB40
TEMPO 1823/1908 3000 BR BKN004
PROB30
TEMPO 1900/1907 0800 FG VV001
No reported NOTAMs for that airfield.



MET'MAP, your aeronautical weather chart ! - Copyright ORBIFLY December 2007 - Disclaimer

ORBIFLY MET'MAP TEAM :

Programming & Development : Alexandra Zaïnal
Concept & Development : Baudouin d'Aumeries
Co-Development & Prog : Marc-Olivier Méhu
Technical & hardware support : Manuel Goepfert

Contact : metmap@orbifly.com




SOURCES & CREDITS :

   NOAA